createdAt,value
2018-12-13T00:00:49.378Z,92.28
2018-12-13T00:03:31.635Z,92.47
2018-12-13T00:06:13.479Z,92.59
2018-12-13T00:08:56.355Z,92.92
2018-12-13T00:11:38.751Z,92.59
2018-12-13T00:14:21.376Z,92.66
2018-12-13T00:17:03.960Z,92.87
2018-12-13T00:19:46.611Z,92.66
2018-12-13T00:22:29.817Z,93.15
2018-12-13T00:25:12.451Z,93.03
2018-12-13T00:27:55.247Z,93.05
2018-12-13T00:30:38.266Z,92.79
2018-12-13T00:33:20.581Z,92.98
2018-12-13T00:36:02.988Z,92.92
2018-12-13T00:38:45.069Z,93.23
2018-12-13T00:41:27.811Z,92.92
2018-12-13T00:44:10.691Z,92.81
2018-12-13T00:46:52.459Z,93.14
2018-12-13T00:49:34.704Z,93.38
2018-12-13T00:52:16.843Z,93.53
2018-12-13T00:54:59.064Z,93.63
2018-12-13T00:57:41.700Z,93.68
2018-12-13T01:00:24.019Z,93.92
2018-12-13T01:03:06.464Z,94.26
2018-12-13T01:05:50.926Z,94.06
2018-12-13T01:08:33.666Z,93.49
2018-12-13T01:11:16.735Z,93.94
2018-12-13T01:13:58.861Z,93.98
2018-12-13T01:16:41.573Z,93.93
2018-12-13T01:19:23.308Z,94.17
2018-12-13T01:22:05.446Z,94.27
2018-12-13T01:24:47.573Z,94.80
2018-12-13T01:27:30.015Z,94.37
2018-12-13T01:30:12.506Z,95.03
2018-12-13T01:32:55.612Z,94.58
2018-12-13T01:35:37.584Z,94.75
2018-12-13T01:38:20.021Z,94.99
2018-12-13T01:41:02.446Z,95.40
2018-12-13T01:43:46.056Z,95.27
2018-12-13T01:46:28.281Z,95.18
2018-12-13T01:49:10.344Z,95.25
2018-12-13T01:51:53.020Z,95.17
2018-12-13T01:54:35.090Z,95.02
2018-12-13T01:57:17.678Z,95.32
2018-12-13T02:00:00.656Z,95.59
2018-12-13T02:02:42.714Z,95.22
2018-12-13T02:05:25.213Z,95.83
2018-12-13T02:08:07.521Z,95.77
2018-12-13T02:10:50.138Z,95.69
2018-12-13T02:13:32.549Z,95.57
2018-12-13T02:16:15.263Z,96.00
2018-12-13T02:18:57.680Z,95.73
2018-12-13T02:21:40.894Z,95.95
2018-12-13T02:24:23.680Z,95.90
2018-12-13T02:27:06.031Z,95.92
2018-12-13T02:29:48.007Z,95.84
2018-12-13T02:32:30.544Z,96.08
2018-12-13T02:35:13.518Z,96.02
2018-12-13T02:37:55.951Z,95.37
2018-12-13T02:40:37.973Z,96.03
2018-12-13T02:43:20.452Z,95.84
2018-12-13T02:46:04.066Z,96.06
2018-12-13T02:48:47.199Z,95.76
2018-12-13T02:51:30.108Z,95.58
2018-12-13T02:54:13.649Z,95.41
2018-12-13T02:56:56.365Z,95.34
2018-12-13T02:59:38.859Z,95.28
2018-12-13T03:02:21.682Z,94.91
2018-12-13T03:05:05.097Z,94.36
2018-12-13T03:07:48.237Z,94.11
2018-12-13T03:10:30.925Z,93.91
2018-12-13T03:13:13.949Z,93.61
2018-12-13T03:15:56.242Z,93.46
2018-12-13T03:18:38.973Z,93.35
2018-12-13T03:21:21.011Z,93.35
2018-12-13T03:24:03.795Z,93.27
2018-12-13T03:26:46.327Z,93.63
2018-12-13T03:29:28.352Z,93.68
2018-12-13T03:32:10.575Z,93.99
2018-12-13T03:34:53.196Z,93.63
2018-12-13T03:37:35.582Z,94.03
2018-12-13T03:40:18.167Z,94.37
2018-12-13T03:43:00.885Z,94.10
2018-12-13T03:45:43.159Z,94.75
2018-12-13T03:48:26.697Z,94.11
2018-12-13T03:51:09.351Z,94.29
2018-12-13T03:53:52.020Z,94.13
2018-12-13T03:56:34.984Z,94.95
2018-12-13T03:59:17.760Z,95.06
2018-12-13T04:02:00.476Z,95.25
2018-12-13T04:04:42.839Z,95.34
2018-12-13T04:07:27.842Z,95.17
2018-12-13T04:10:09.126Z,95.36
2018-12-13T04:12:51.862Z,94.48
2018-12-13T04:15:34.861Z,94.78
2018-12-13T04:18:16.963Z,94.53
2018-12-13T04:20:59.315Z,94.77
2018-12-13T04:23:41.799Z,94.64
2018-12-13T04:26:24.260Z,94.89
2018-12-13T04:29:06.719Z,93.89
2018-12-13T04:31:49.403Z,94.62
2018-12-13T04:34:32.226Z,93.94
2018-12-13T04:37:14.048Z,94.62
2018-12-13T04:39:56.680Z,94.69
2018-12-13T04:42:39.488Z,94.33
2018-12-13T04:45:21.793Z,94.14
2018-12-13T04:48:05.282Z,93.45
2018-12-13T04:50:48.383Z,93.67
2018-12-13T04:53:30.376Z,94.63
2018-12-13T04:56:13.324Z,93.71
2018-12-13T04:58:56.573Z,93.73
2018-12-13T05:01:39.066Z,94.77
2018-12-13T05:04:22.292Z,94.83
2018-12-13T05:07:05.518Z,94.43
2018-12-13T05:09:47.526Z,94.31
2018-12-13T05:12:30.231Z,93.82
2018-12-13T05:15:12.333Z,93.65
2018-12-13T05:17:54.737Z,94.17
2018-12-13T05:20:37.555Z,93.83
2018-12-13T05:23:19.657Z,93.91
2018-12-13T05:26:02.178Z,93.49
2018-12-13T05:28:44.483Z,93.68
2018-12-13T05:31:26.822Z,93.45
2018-12-13T05:34:09.371Z,93.75
2018-12-13T05:36:52.258Z,93.10
2018-12-13T05:39:34.327Z,93.47
2018-12-13T05:42:16.885Z,93.57
2018-12-13T05:44:59.354Z,92.90
2018-12-13T05:47:41.995Z,92.42
2018-12-13T05:50:24.644Z,93.00
2018-12-13T05:53:07.564Z,92.62
2018-12-13T05:55:50.034Z,93.11
2018-12-13T05:58:32.443Z,92.32
2018-12-13T06:01:14.268Z,92.66
2018-12-13T06:03:56.729Z,92.22
2018-12-13T06:06:39.105Z,92.61
2018-12-13T06:09:20.916Z,93.13
2018-12-13T06:12:03.102Z,92.65
2018-12-13T06:14:44.902Z,92.64
2018-12-13T06:17:44.070Z,92.38
2018-12-13T06:21:29.400Z,92.67
2018-12-13T06:24:15.069Z,92.56
2018-12-13T06:26:56.618Z,92.29
2018-12-13T06:29:41.772Z,93.24
2018-12-13T06:32:23.108Z,92.16
2018-12-13T06:35:05.973Z,92.17
2018-12-13T06:37:47.767Z,93.08
2018-12-13T06:40:29.560Z,92.09
2018-12-13T06:43:12.935Z,92.39
2018-12-13T06:45:58.908Z,92.39
2018-12-13T06:48:41.327Z,92.75
2018-12-13T06:51:24.126Z,93.23
2018-12-13T06:54:06.533Z,92.60
2018-12-13T06:56:48.854Z,92.48
2018-12-13T06:59:31.604Z,93.10
2018-12-13T07:02:13.582Z,92.49
2018-12-13T07:04:59.037Z,93.05
2018-12-13T07:07:40.941Z,92.89
2018-12-13T07:10:23.965Z,93.20
2018-12-13T07:13:06.002Z,93.45
2018-12-13T07:15:48.689Z,92.85
2018-12-13T07:18:30.832Z,93.57
2018-12-13T07:21:12.474Z,93.47
2018-12-13T07:23:54.253Z,93.20
2018-12-13T07:26:36.554Z,93.92
2018-12-13T07:29:18.555Z,93.67
2018-12-13T07:32:00.757Z,93.55
2018-12-13T07:34:43.466Z,93.33
2018-12-13T07:37:25.692Z,93.00
2018-12-13T07:40:09.197Z,92.70
2018-12-13T07:42:51.030Z,93.16
2018-12-13T07:45:33.813Z,93.17
2018-12-13T07:48:15.954Z,93.46
2018-12-13T07:50:58.548Z,93.62
2018-12-13T07:53:41.252Z,92.93
2018-12-13T07:56:24.088Z,92.96
2018-12-13T07:59:06.462Z,93.30
2018-12-13T08:01:48.992Z,92.18
2018-12-13T08:04:31.852Z,92.08
2018-12-13T08:07:14.469Z,92.83
2018-12-13T08:09:56.611Z,91.63
2018-12-13T08:12:39.622Z,89.12
2018-12-13T08:15:21.662Z,89.09
2018-12-13T08:18:03.824Z,89.33
2018-12-13T08:20:46.090Z,90.14
2018-12-13T08:23:28.643Z,90.00
2018-12-13T08:26:10.972Z,90.64
2018-12-13T08:28:52.650Z,90.53
2018-12-13T08:31:36.177Z,90.78
2018-12-13T08:34:19.393Z,90.73
2018-12-13T08:37:01.726Z,90.08
2018-12-13T08:39:44.529Z,89.85
2018-12-13T08:42:26.722Z,89.35
2018-12-13T08:45:09.078Z,88.32
2018-12-13T08:47:51.359Z,88.25
2018-12-13T08:50:34.049Z,89.31
2018-12-13T08:53:16.092Z,89.71
2018-12-13T08:55:57.670Z,90.16
2018-12-13T08:58:39.737Z,90.10
2018-12-13T09:01:22.162Z,89.50
2018-12-13T09:04:03.753Z,89.59
2018-12-13T09:06:45.226Z,89.33
2018-12-13T09:09:26.936Z,89.31
2018-12-13T09:12:09.811Z,89.16
2018-12-13T09:14:52.059Z,88.96
2018-12-13T09:17:34.241Z,88.39
2018-12-13T09:20:15.871Z,88.85
2018-12-13T09:22:58.038Z,88.24
2018-12-13T09:25:39.639Z,88.28
2018-12-13T09:28:21.307Z,87.87
2018-12-13T09:31:03.910Z,87.68
2018-12-13T09:33:46.821Z,87.08
2018-12-13T09:36:28.518Z,87.12
2018-12-13T09:39:10.125Z,85.75
2018-12-13T09:41:52.467Z,86.41
2018-12-13T09:44:35.447Z,85.20
2018-12-13T09:47:17.972Z,85.39
2018-12-13T09:50:00.362Z,85.60
2018-12-13T09:52:43.464Z,86.07
2018-12-13T09:55:25.773Z,85.60
2018-12-13T09:58:08.181Z,86.47
2018-12-13T10:00:50.996Z,85.10
2018-12-13T10:03:32.794Z,83.64
2018-12-13T10:06:15.108Z,84.10
2018-12-13T10:08:56.780Z,84.67
2018-12-13T10:11:38.033Z,84.90
2018-12-13T10:14:20.214Z,85.78
2018-12-13T10:17:02.394Z,85.58
2018-12-13T10:19:43.986Z,85.31
2018-12-13T10:22:25.387Z,86.84
2018-12-13T10:25:06.825Z,86.28
2018-12-13T10:27:48.417Z,86.91
2018-12-13T10:30:30.223Z,87.08
2018-12-13T10:33:11.725Z,86.39
2018-12-13T10:35:54.609Z,86.95
2018-12-13T10:38:36.450Z,86.87
2018-12-13T10:41:18.335Z,86.21
2018-12-13T10:44:00.226Z,85.95
2018-12-13T10:46:42.517Z,86.18
2018-12-13T10:49:23.994Z,85.49
2018-12-13T10:52:05.697Z,86.05
2018-12-13T10:54:47.708Z,85.52
2018-12-13T10:57:30.021Z,85.30
2018-12-13T11:00:19.455Z,85.38
2018-12-13T11:03:21.043Z,85.03
2018-12-13T11:06:05.680Z,84.99
2018-12-13T11:08:50.293Z,85.22
2018-12-13T11:11:43.230Z,84.78
2018-12-13T11:14:33.534Z,84.96
2018-12-13T11:17:19.812Z,83.31
2018-12-13T11:20:03.862Z,82.46
2018-12-13T11:22:47.360Z,82.35
2018-12-13T11:25:31.827Z,82.34
2018-12-13T11:28:26.155Z,83.81
2018-12-13T11:31:10.316Z,83.32
2018-12-13T11:33:52.061Z,83.14
2018-12-13T11:36:34.173Z,80.77
2018-12-13T11:39:16.678Z,78.80
2018-12-13T11:41:57.939Z,79.03
2018-12-13T11:44:39.830Z,80.78
2018-12-13T11:47:25.681Z,80.22
2018-12-13T11:50:08.516Z,78.58
2018-12-13T11:52:50.397Z,78.25
2018-12-13T11:55:34.517Z,80.45
2018-12-13T11:58:16.906Z,79.84
2018-12-13T12:00:58.677Z,80.80
2018-12-13T12:03:40.694Z,81.44
2018-12-13T12:06:23.111Z,82.26
2018-12-13T12:09:12.011Z,80.46
2018-12-13T12:11:51.165Z,80.67
2018-12-13T12:14:34.557Z,81.51
2018-12-13T12:17:17.303Z,81.94
2018-12-13T12:20:03.662Z,81.44
2018-12-13T12:22:46.779Z,81.11
2018-12-13T12:25:30.064Z,82.06
2018-12-13T12:28:12.511Z,80.77
2018-12-13T12:30:55.175Z,81.73
2018-12-13T12:33:37.391Z,81.09
2018-12-13T12:36:19.954Z,80.55
2018-12-13T12:39:04.466Z,81.18
2018-12-13T12:41:57.283Z,79.58
2018-12-13T12:44:49.329Z,80.03
2018-12-13T12:47:32.557Z,81.09
2018-12-13T12:50:17.585Z,79.47
2018-12-13T12:52:59.291Z,80.39
2018-12-13T12:55:40.968Z,80.36
2018-12-13T12:58:23.691Z,80.94
2018-12-13T13:01:06.261Z,81.10
2018-12-13T13:03:48.366Z,81.77
2018-12-13T13:06:35.361Z,82.03
2018-12-13T13:09:25.057Z,81.34
2018-12-13T13:12:05.635Z,81.88
2018-12-13T13:14:48.345Z,81.42
2018-12-13T13:17:30.133Z,81.79
2018-12-13T13:20:12.128Z,81.80
2018-12-13T13:22:54.306Z,82.03
2018-12-13T13:25:35.858Z,82.53
2018-12-13T13:28:17.297Z,82.75
2018-12-13T13:30:59.432Z,82.91
2018-12-13T13:33:41.599Z,83.04
2018-12-13T13:36:23.182Z,83.37
2018-12-13T13:39:07.170Z,83.73
2018-12-13T13:41:49.322Z,83.50
2018-12-13T13:44:37.980Z,83.54
2018-12-13T13:47:20.729Z,82.09
2018-12-13T13:50:03.092Z,81.62
2018-12-13T13:52:45.239Z,82.10
2018-12-13T13:55:27.189Z,81.83
2018-12-13T13:58:10.087Z,81.51
2018-12-13T14:00:52.295Z,81.49
2018-12-13T14:03:34.576Z,81.94
2018-12-13T14:06:16.615Z,81.44
2018-12-13T14:09:04.188Z,82.03
2018-12-13T14:11:46.240Z,81.76
2018-12-13T14:14:28.433Z,81.83
2018-12-13T14:17:10.950Z,81.12
2018-12-13T14:19:53.384Z,81.16
2018-12-13T14:22:35.816Z,81.27
2018-12-13T14:25:18.174Z,81.37
2018-12-13T14:28:00.389Z,82.02
2018-12-13T14:30:43.533Z,81.64
2018-12-13T14:33:25.901Z,81.90
2018-12-13T14:36:08.747Z,81.42
2018-12-13T14:38:51.030Z,81.75
2018-12-13T14:41:35.073Z,81.26
2018-12-13T14:44:22.645Z,81.84
2018-12-13T14:47:04.030Z,82.10
2018-12-13T14:49:45.577Z,81.72
2018-12-13T14:52:27.253Z,81.85
2018-12-13T14:55:09.718Z,81.83
2018-12-13T14:57:52.293Z,81.98
2018-12-13T15:00:34.493Z,82.30
2018-12-13T15:03:16.781Z,81.73
2018-12-13T15:05:58.506Z,81.54
2018-12-13T15:08:41.113Z,81.46
2018-12-13T15:11:23.910Z,80.96
2018-12-13T15:14:06.226Z,80.24
2018-12-13T15:16:48.550Z,79.97
2018-12-13T15:19:29.836Z,80.98
2018-12-13T15:22:12.840Z,81.32
2018-12-13T15:24:55.258Z,80.90
2018-12-13T15:27:37.129Z,80.25
2018-12-13T15:30:20.708Z,80.41
2018-12-13T15:33:02.782Z,80.42
2018-12-13T15:35:44.270Z,80.56
2018-12-13T15:38:26.549Z,80.20
2018-12-13T15:41:08.717Z,80.96
2018-12-13T15:43:51.353Z,80.96
2018-12-13T15:46:33.515Z,81.04
2018-12-13T15:49:15.784Z,81.13
2018-12-13T15:51:57.682Z,81.27
2018-12-13T15:54:40.208Z,80.68
2018-12-13T15:57:22.470Z,81.20
2018-12-13T16:00:04.562Z,81.48
2018-12-13T16:02:46.617Z,82.56
2018-12-13T16:05:28.082Z,82.07
2018-12-13T16:08:10.479Z,82.20
2018-12-13T16:10:53.791Z,82.04
2018-12-13T16:13:35.657Z,82.14
2018-12-13T16:16:17.397Z,82.80
2018-12-13T16:18:59.586Z,82.66
2018-12-13T16:21:41.746Z,83.24
2018-12-13T16:24:24.024Z,83.60
2018-12-13T16:27:05.746Z,83.38
2018-12-13T16:29:47.390Z,83.47
2018-12-13T16:32:31.950Z,83.94
2018-12-13T16:35:18.935Z,83.55
2018-12-13T16:38:00.783Z,83.98
2018-12-13T16:40:43.546Z,84.06
2018-12-13T16:43:26.473Z,84.25
2018-12-13T16:46:08.002Z,84.08
2018-12-13T16:48:49.271Z,84.29
2018-12-13T16:51:31.119Z,84.18
2018-12-13T16:54:13.366Z,84.94
2018-12-13T16:56:55.224Z,86.07
2018-12-13T16:59:37.685Z,86.07
2018-12-13T17:02:20.537Z,85.99
2018-12-13T17:05:03.902Z,86.50
2018-12-13T17:07:47.335Z,86.06
2018-12-13T17:10:30.110Z,86.44
2018-12-13T17:13:12.649Z,86.69
2018-12-13T17:15:56.485Z,87.14
2018-12-13T17:18:45.972Z,86.90
2018-12-13T17:21:29.232Z,86.88
2018-12-13T17:24:12.554Z,87.19
2018-12-13T17:26:55.030Z,87.49
2018-12-13T17:29:37.526Z,87.13
2018-12-13T17:32:20.616Z,87.31
2018-12-13T17:35:02.522Z,87.10
2018-12-13T17:37:44.696Z,87.11
2018-12-13T17:40:27.878Z,86.48
2018-12-13T17:43:09.452Z,87.39
2018-12-13T17:45:50.782Z,86.88
2018-12-13T17:48:33.000Z,86.83
2018-12-13T17:51:17.642Z,86.43
2018-12-13T17:54:01.057Z,86.40
2018-12-13T17:56:49.434Z,87.02
2018-12-13T17:59:40.760Z,86.88
2018-12-13T18:02:23.409Z,87.16
2018-12-13T18:05:06.434Z,87.21
2018-12-13T18:07:48.297Z,87.56
2018-12-13T18:10:31.185Z,87.57
2018-12-13T18:13:13.604Z,87.69
2018-12-13T18:15:55.617Z,87.80
2018-12-13T18:18:37.507Z,87.94
2018-12-13T18:21:19.801Z,87.95
2018-12-13T18:24:02.094Z,88.60
2018-12-13T18:26:43.758Z,88.72
2018-12-13T18:29:27.229Z,88.34
2018-12-13T18:32:08.711Z,88.37
2018-12-13T18:34:50.402Z,88.30
2018-12-13T18:37:32.718Z,88.52
2018-12-13T18:40:14.397Z,88.41
2018-12-13T18:43:09.384Z,88.81
2018-12-13T18:46:25.272Z,89.18
2018-12-13T18:49:07.719Z,89.33
2018-12-13T18:51:51.102Z,89.17
2018-12-13T18:54:33.561Z,89.04
2018-12-13T18:57:15.773Z,88.72
2018-12-13T18:59:57.403Z,88.45
2018-12-13T19:02:38.818Z,88.98
2018-12-13T19:05:20.596Z,88.63
2018-12-13T19:08:03.006Z,88.63
2018-12-13T19:10:44.461Z,88.76
2018-12-13T19:13:26.828Z,89.13
2018-12-13T19:16:08.574Z,89.20
2018-12-13T19:18:51.702Z,89.55
2018-12-13T19:21:42.591Z,89.82
2018-12-13T19:24:24.529Z,89.50
2018-12-13T19:27:06.589Z,89.97
2018-12-13T19:29:48.517Z,90.23
2018-12-13T19:32:31.182Z,90.32
2018-12-13T19:35:19.260Z,90.15
2018-12-13T19:37:58.054Z,90.56
2018-12-13T19:40:40.342Z,90.33
2018-12-13T19:43:24.045Z,89.90
2018-12-13T19:46:06.557Z,89.56
2018-12-13T19:48:48.722Z,89.74
2018-12-13T19:51:31.273Z,89.52
2018-12-13T19:54:13.608Z,89.67
2018-12-13T19:56:55.329Z,89.85
2018-12-13T19:59:37.832Z,90.07
2018-12-13T20:02:20.236Z,89.71
2018-12-13T20:05:03.159Z,90.04
2018-12-13T20:07:46.550Z,89.85
2018-12-13T20:10:29.107Z,89.47
2018-12-13T20:13:11.700Z,89.49
2018-12-13T20:15:54.415Z,89.73
2018-12-13T20:18:36.737Z,89.40
2018-12-13T20:21:19.434Z,89.63
2018-12-13T20:24:01.458Z,89.28
2018-12-13T20:26:43.941Z,89.20
2018-12-13T20:29:26.656Z,88.95
2018-12-13T20:32:09.049Z,89.00
2018-12-13T20:34:51.368Z,89.18
2018-12-13T20:37:33.672Z,89.75
2018-12-13T20:40:15.979Z,89.57
2018-12-13T20:42:59.203Z,89.67
2018-12-13T20:45:41.510Z,89.83
2018-12-13T20:48:23.523Z,89.99
2018-12-13T20:51:06.134Z,90.16
2018-12-13T20:53:48.853Z,90.16
2018-12-13T20:56:31.170Z,90.56
2018-12-13T20:59:13.245Z,90.39
2018-12-13T21:01:56.158Z,90.28
2018-12-13T21:04:38.266Z,90.58
2018-12-13T21:07:26.281Z,90.52
2018-12-13T21:10:10.709Z,90.66
2018-12-13T21:12:53.468Z,90.59
2018-12-13T21:15:36.391Z,91.28
2018-12-13T21:18:18.718Z,90.80
2018-12-13T21:21:01.295Z,91.03
2018-12-13T21:27:30.874Z,91.29
2018-12-13T21:30:14.214Z,91.45
2018-12-13T21:32:57.313Z,91.43
2018-12-13T21:35:41.010Z,91.38
2018-12-13T21:38:23.710Z,91.84
2018-12-13T21:41:06.679Z,91.60
2018-12-13T21:43:51.272Z,91.82
2018-12-13T21:46:36.431Z,91.68
2018-12-13T21:49:21.408Z,92.30
2018-12-13T21:52:04.113Z,92.13
2018-12-13T21:54:46.928Z,92.60
2018-12-13T21:57:30.616Z,93.16
2018-12-13T22:00:15.913Z,92.73
2018-12-13T22:03:00.221Z,93.70
2018-12-13T22:05:42.901Z,93.51
2018-12-13T22:08:25.679Z,93.84
2018-12-13T22:11:10.562Z,92.84
2018-12-13T22:13:57.140Z,92.98
2018-12-13T22:16:40.187Z,93.27
2018-12-13T22:19:24.389Z,93.66
2018-12-13T22:22:08.163Z,93.74
2018-12-13T22:24:51.716Z,93.20
2018-12-13T22:27:36.042Z,93.32
2018-12-13T22:30:18.915Z,93.20
2018-12-13T22:33:04.269Z,94.38
2018-12-13T22:35:47.870Z,94.05
2018-12-13T22:38:30.960Z,93.83
2018-12-13T22:41:14.746Z,94.45
2018-12-13T22:43:58.288Z,94.29
2018-12-13T22:46:41.229Z,94.02
2018-12-13T22:49:23.843Z,94.02
2018-12-13T22:52:06.997Z,93.59
2018-12-13T22:54:51.741Z,94.05
2018-12-13T22:57:34.259Z,94.69
2018-12-13T23:00:18.585Z,94.31
2018-12-13T23:03:03.110Z,93.90
2018-12-13T23:05:46.124Z,94.44
2018-12-13T23:08:29.114Z,94.06
2018-12-13T23:11:14.436Z,94.72
2018-12-13T23:13:57.912Z,94.87
2018-12-13T23:16:40.645Z,95.14
2018-12-13T23:19:25.103Z,94.85
2018-12-13T23:22:08.142Z,94.67
2018-12-13T23:24:52.295Z,94.44
2018-12-13T23:27:36.931Z,94.18
2018-12-13T23:30:20.990Z,94.51
2018-12-13T23:33:03.768Z,94.96
2018-12-13T23:35:46.148Z,94.14
2018-12-13T23:38:31.049Z,94.19
2018-12-13T23:41:14.697Z,94.69
2018-12-13T23:43:57.693Z,94.66
2018-12-13T23:46:40.532Z,93.92
2018-12-13T23:49:23.932Z,94.09
2018-12-13T23:52:07.117Z,94.12
2018-12-13T23:54:50.137Z,93.86
2018-12-13T23:57:35.288Z,93.67
